Terminal Aerodrome Forecast
Issued by NWS Mt. Holly, NJ

Home | Current Version | Previous Version | Text Only | Print | Product List | Glossary On
Versions: 1 2 3 4 5 6 7 8 9 10 11 12 13 14 15 16 17 18 19 20 21 22 23 24 25 26 27 28
000
FTUS41 KPHI 050002 AAA
TAFRDG
TAF AMD
KRDG 050002Z 0500/0524 00000KT 1/2SM FG VV004
      TEMPO 0501/0504 2SM -RA BR OVC006
     FM050400 32009KT 2SM -RAPL BR OVC009
     FM050600 34008KT 1SM -SNPL BR OVC007
     FM050800 35010G17KT 3/4SM -SN BR OVC006
     FM051900 35010KT P6SM OVC025=

USA.gov is the U.S. government's official web portal to all federal, state and local government web resources and services.